Flight Track Log - Related Links

Times and Time Zones

All times are in EDT time to prevent confusion due to time zone crossing. See the N450S flight status page for this flight to view local times or setup timezone preferences in your user account.

Time Position Orientation Groundspeed Altitude Reporting Facility
EDT Latitude Longitude Course Direction KTS MPH feet Rate Location/Type
Mon 09:41:35 41.4467 -82.6803 295° West 157 181 2,300  Level Cleveland Center
Mon 09:42:57 41.4625 -82.7250 295° West 130 150 5,100 1,859 Climbing Cleveland Center
Mon 09:43:57 41.4469 -82.7828 250° West 151 174 6,700 1,600 Climbing Cleveland Center
Mon 09:44:57 41.4331 -82.8486 254° West 176 203 8,300 1,550 Climbing Cleveland Center
Mon 09:45:57 41.4172 -82.9147 252° West 186 214 9,800 1,350 Climbing Cleveland Center
Mon 09:46:57 41.4011 -82.9861 253° West 200 230 11,000 800 Climbing Cleveland Center
Mon 09:47:57 41.3825 -83.0711 254° West 225 259 11,400 950 Climbing Cleveland Center
Mon 09:48:57 41.3622 -83.1478 251° West 230 265 12,900 1,500 Climbing Cleveland Center
Mon 09:49:57 41.3458 -83.2247 254° West 224 258 14,400 1,500 Climbing Cleveland Center
Mon 09:50:57 41.3272 -83.2986 251° West 224 258 15,900 1,550 Climbing Cleveland Center
Mon 09:51:57 41.3108 -83.3753 254° West 224 258 17,500 1,050 Climbing Cleveland Center
Mon 09:52:57 41.2922 -83.4575 253° West 224 258 18,000 250 Climbing Cleveland Center
Mon 09:53:57 41.2711 -83.5503 253° West 243 280 18,000  Level Cleveland Center
Mon 09:54:57 41.2456 -83.6431 250° West 256 295 18,000  Level Cleveland Center
Mon 09:55:57 41.2244 -83.7361 253° West 268 308 18,000  Level Cleveland Center
Mon 09:56:57 41.2031 -83.8289 253° West 268 308 18,000  Level Cleveland Center
Mon 09:57:57 41.1817 -83.9217 253° West 263 303 18,000  Level Cleveland Center
Mon 09:58:57 41.1600 -84.0169 253° West 263 303 18,000  Level Cleveland Center
Mon 09:59:57 41.1383 -84.1097 253° West 263 303 18,000  Level Cleveland Center
Mon 10:01:01 41.1164 -84.1983 252° West 267 307 18,000  Level Chicago Center
Mon 10:02:02 41.0928 -84.2914 251° West 267 307 18,000  Level Chicago Center
Mon 10:03:04 41.0700 -84.3861 252° West 269 310 18,000  Level Chicago Center
Mon 10:04:06 41.0417 -84.5011 252° West 273 314 18,000  Level Chicago Center
Mon 10:05:08 41.0189 -84.5953 252° West 270 311 18,000  Level Chicago Center
Mon 10:06:10 40.9958 -84.6889 252° West 269 310 18,000  Level Chicago Center
Mon 10:07:12 40.9725 -84.7831 252° West 269 310 18,000  Level Chicago Center
Mon 10:08:14 40.9486 -84.8764 251° West 268 308 18,000  Level Chicago Center
Mon 10:09:16 40.9247 -84.9692 251° West 267 307 18,000  Level Chicago Center
Mon 10:10:18 40.9019 -85.0639 252° West 269 310 18,000  Level Chicago Center
Mon 10:11:20 40.8739 -85.1756 252° West 268 308 18,000  Level Chicago Center
Mon 10:12:22 40.8522 -85.2694 253° West 267 307 18,000  Level Chicago Center
Mon 10:13:23 40.8294 -85.3625 252° West 266 306 18,000  Level Chicago Center
Mon 10:14:25 40.8075 -85.4564 253° West 267 307 18,000  Level Chicago Center
Mon 10:15:27 40.7858 -85.5503 253° West 267 307 18,000  Level Chicago Center
Mon 10:16:29 40.7603 -85.6431 250° West 268 308 18,000  Level Chicago Center
Mon 10:17:31 40.7286 -85.7319 245° Southwest 269 310 18,000 -677 Level Chicago Center
Mon 10:18:33 40.6711 -85.8267 231° Southwest 284 327 16,600 -1,300 Descending Chicago Center
Mon 10:19:31 40.6317 -85.9156 240° Southwest 288 331 15,400 -1,306 Descending Chicago Center
Mon 10:20:37 40.6092 -86.0194 254° West 286 329 13,900 -1,537 Descending Chicago Center
Mon 10:21:32 40.5878 -86.1211 255° West 288 331 12,300 -1,452 Descending Chicago Center
Mon 10:22:41 40.5664 -86.2236 255° West 290 334 10,900 -1,388 Descending Chicago Center
Mon 10:23:33 40.5458 -86.3239 255° West 280 322 9,500 -1,381 Descending Chicago Center
Mon 10:24:34 40.5236 -86.4183 253° West 279 321 8,300 -1,388 Descending Chicago Center
Mon 10:25:34 40.5036 -86.5158 255° West 271 312 6,700 -1,587 Descending Chicago Center
Mon 10:26:35 40.4814 -86.6128 253° West 267 307 5,100 -1,421 Descending Chicago Center
Mon 10:26:50 40.4806 -86.6231 264° West 264 304 4,900 -1,180 Descending Chicago Center
Mon 10:27:36 40.4614 -86.7044 253° West 267 307 3,900 -1,161 Descending Chicago Center
Mon 10:27:52 40.4581 -86.7158 249° West 266 306 3,700 -1,300 Descending Chicago Center
Mon 10:28:36 40.4208 -86.7811 233° Southwest 249 287 2,600 -1,258 Descending Chicago Center
Mon 10:28:54 40.4142 -86.8019 247° West 250 288 2,400 -393 Descending Chicago Center
Mon 10:29:37 40.4036 -86.8508 254° West 204 235 2,200 -194 Descending Chicago Center
Mon 10:29:56 40.3906 -86.8669 223° Southwest 246 283 2,200  Level Chicago Center

Login

Don't have an account? Register now (free) for customized features, flight alerts, and more!